sensor_id;sensor_type;location;lat;lon;timestamp;pressure;altitude;pressure_sealevel;temperature;humidity
72118;BME280;59992;47.490;8.736;2022-11-20T00:02:09;96249.42;;;3.26;94.06
72118;BME280;59992;47.490;8.736;2022-11-20T00:04:57;96248.77;;;3.31;94.65
72118;BME280;59992;47.490;8.736;2022-11-20T00:07:46;96249.52;;;3.37;95.43
72118;BME280;59992;47.490;8.736;2022-11-20T00:10:36;96255.16;;;3.44;95.37
72118;BME280;59992;47.490;8.736;2022-11-20T00:13:24;96254.53;;;3.49;95.66
72118;BME280;59992;47.490;8.736;2022-11-20T00:16:14;96257.60;;;3.54;95.70
72118;BME280;59992;47.490;8.736;2022-11-20T00:19:03;96260.73;;;3.62;96.22
72118;BME280;59992;47.490;8.736;2022-11-20T00:21:51;96261.65;;;3.70;96.53
72118;BME280;59992;47.490;8.736;2022-11-20T00:24:41;96266.05;;;3.78;96.24
72118;BME280;59992;47.490;8.736;2022-11-20T00:27:29;96264.44;;;3.88;95.88
72118;BME280;59992;47.490;8.736;2022-11-20T00:30:18;96266.48;;;3.99;96.47
72118;BME280;59992;47.490;8.736;2022-11-20T00:33:07;96264.64;;;4.09;95.95
72118;BME280;59992;47.490;8.736;2022-11-20T00:35:59;96266.19;;;4.17;95.90
72118;BME280;59992;47.490;8.736;2022-11-20T00:38:51;96266.29;;;4.23;94.90
72118;BME280;59992;47.490;8.736;2022-11-20T00:41:40;96270.41;;;4.23;94.16
72118;BME280;59992;47.490;8.736;2022-11-20T00:44:28;96268.19;;;4.26;94.82
72118;BME280;59992;47.490;8.736;2022-11-20T00:47:16;96266.68;;;4.30;94.16
72118;BME280;59992;47.490;8.736;2022-11-20T00:50:05;96272.26;;;4.36;94.05
72118;BME280;59992;47.490;8.736;2022-11-20T00:52:53;96275.00;;;4.42;95.01
72118;BME280;59992;47.490;8.736;2022-11-20T00:55:42;96273.19;;;4.46;94.00
72118;BME280;59992;47.490;8.736;2022-11-20T00:58:31;96275.46;;;4.50;94.64
72118;BME280;59992;47.490;8.736;2022-11-20T01:01:21;96279.70;;;4.51;94.09
72118;BME280;59992;47.490;8.736;2022-11-20T01:04:11;96280.36;;;4.53;94.70
72118;BME280;59992;47.490;8.736;2022-11-20T01:06:59;96279.40;;;4.53;94.38
72118;BME280;59992;47.490;8.736;2022-11-20T01:09:48;96279.08;;;4.50;93.50
72118;BME280;59992;47.490;8.736;2022-11-20T01:12:36;96267.73;;;4.45;92.58
72118;BME280;59992;47.490;8.736;2022-11-20T01:15:24;96275.05;;;4.46;92.77
72118;BME280;59992;47.490;8.736;2022-11-20T01:18:12;96280.04;;;4.45;93.36
72118;BME280;59992;47.490;8.736;2022-11-20T01:21:04;96280.96;;;4.45;94.03
72118;BME280;59992;47.490;8.736;2022-11-20T01:23:53;96279.75;;;4.45;93.80
72118;BME280;59992;47.490;8.736;2022-11-20T01:26:43;96282.45;;;4.45;93.91
72118;BME280;59992;47.490;8.736;2022-11-20T01:29:31;96285.05;;;4.42;94.08
72118;BME280;59992;47.490;8.736;2022-11-20T01:32:19;96288.14;;;4.45;94.12
72118;BME280;59992;47.490;8.736;2022-11-20T01:35:08;96290.19;;;4.48;93.49
72118;BME280;59992;47.490;8.736;2022-11-20T01:37:57;96291.13;;;4.52;94.47
72118;BME280;59992;47.490;8.736;2022-11-20T01:40:45;96292.57;;;4.57;94.10
72118;BME280;59992;47.490;8.736;2022-11-20T01:43:34;96296.17;;;4.62;93.96
72118;BME280;59992;47.490;8.736;2022-11-20T01:46:23;96295.95;;;4.67;93.92
72118;BME280;59992;47.490;8.736;2022-11-20T01:49:17;96297.56;;;4.73;94.34
72118;BME280;59992;47.490;8.736;2022-11-20T01:52:11;96301.98;;;4.80;92.97
72118;BME280;59992;47.490;8.736;2022-11-20T01:55:05;96300.27;;;4.86;93.11
72118;BME280;59992;47.490;8.736;2022-11-20T01:57:55;96298.05;;;4.88;92.15
72118;BME280;59992;47.490;8.736;2022-11-20T02:00:43;96299.34;;;4.91;91.63
72118;BME280;59992;47.490;8.736;2022-11-20T02:03:32;96300.02;;;4.94;92.22
72118;BME280;59992;47.490;8.736;2022-11-20T02:06:24;96292.35;;;4.94;91.20
72118;BME280;59992;47.490;8.736;2022-11-20T02:09:14;96293.48;;;5.01;91.17
72118;BME280;59992;47.490;8.736;2022-11-20T02:12:04;96297.35;;;5.06;90.62
72118;BME280;59992;47.490;8.736;2022-11-20T02:14:52;96294.69;;;5.09;89.92
72118;BME280;59992;47.490;8.736;2022-11-20T02:17:41;96299.30;;;5.15;90.53
72118;BME280;59992;47.490;8.736;2022-11-20T02:20:29;96297.87;;;5.20;89.54
72118;BME280;59992;47.490;8.736;2022-11-20T02:23:21;96301.63;;;5.23;89.49
72118;BME280;59992;47.490;8.736;2022-11-20T02:26:13;96304.80;;;5.26;89.47
72118;BME280;59992;47.490;8.736;2022-11-20T02:29:03;96309.71;;;5.27;88.49
72118;BME280;59992;47.490;8.736;2022-11-20T02:31:52;96312.09;;;5.32;88.67
72118;BME280;59992;47.490;8.736;2022-11-20T02:34:41;96312.95;;;5.33;88.28
72118;BME280;59992;47.490;8.736;2022-11-20T02:37:32;96311.67;;;5.35;88.04
72118;BME280;59992;47.490;8.736;2022-11-20T02:40:23;96308.34;;;5.39;88.17
72118;BME280;59992;47.490;8.736;2022-11-20T02:43:11;96306.58;;;5.43;88.33
72118;BME280;59992;47.490;8.736;2022-11-20T02:45:59;96303.11;;;5.46;87.33
72118;BME280;59992;47.490;8.736;2022-11-20T02:48:48;96301.20;;;5.47;87.21
72118;BME280;59992;47.490;8.736;2022-11-20T02:51:36;96303.72;;;5.46;86.51
72118;BME280;59992;47.490;8.736;2022-11-20T02:54:24;96301.55;;;5.41;85.69
72118;BME280;59992;47.490;8.736;2022-11-20T02:57:12;96301.80;;;5.44;86.08
72118;BME280;59992;47.490;8.736;2022-11-20T03:00:01;96302.08;;;5.44;85.14
72118;BME280;59992;47.490;8.736;2022-11-20T03:02:49;96302.98;;;5.49;86.17
72118;BME280;59992;47.490;8.736;2022-11-20T03:05:37;96305.42;;;5.54;86.06
72118;BME280;59992;47.490;8.736;2022-11-20T03:08:25;96306.70;;;5.56;86.42
72118;BME280;59992;47.490;8.736;2022-11-20T03:11:13;96304.05;;;5.56;85.96
72118;BME280;59992;47.490;8.736;2022-11-20T03:14:03;96303.08;;;5.56;86.37
72118;BME280;59992;47.490;8.736;2022-11-20T03:16:51;96302.80;;;5.54;85.76
72118;BME280;59992;47.490;8.736;2022-11-20T03:19:39;96304.84;;;5.52;86.47
72118;BME280;59992;47.490;8.736;2022-11-20T03:22:30;96300.04;;;5.48;85.86
72118;BME280;59992;47.490;8.736;2022-11-20T03:25:18;96297.50;;;5.53;84.78
72118;BME280;59992;47.490;8.736;2022-11-20T03:28:06;96294.09;;;5.54;85.32
72118;BME280;59992;47.490;8.736;2022-11-20T03:30:54;96292.36;;;5.54;85.95
72118;BME280;59992;47.490;8.736;2022-11-20T03:33:42;96292.17;;;5.53;85.88
72118;BME280;59992;47.490;8.736;2022-11-20T03:36:31;96292.70;;;5.47;86.06
72118;BME280;59992;47.490;8.736;2022-11-20T03:39:20;96293.66;;;5.49;86.73
72118;BME280;59992;47.490;8.736;2022-11-20T03:42:08;96297.30;;;5.47;87.25
72118;BME280;59992;47.490;8.736;2022-11-20T03:45:18;96302.36;;;5.46;87.40
72118;BME280;59992;47.490;8.736;2022-11-20T03:48:06;96305.27;;;5.45;87.27
72118;BME280;59992;47.490;8.736;2022-11-20T03:51:07;96306.85;;;5.45;87.06
72118;BME280;59992;47.490;8.736;2022-11-20T03:53:57;96304.94;;;5.41;87.80
72118;BME280;59992;47.490;8.736;2022-11-20T03:56:46;96306.77;;;5.43;87.25
72118;BME280;59992;47.490;8.736;2022-11-20T03:59:34;96317.88;;;5.40;87.96
72118;BME280;59992;47.490;8.736;2022-11-20T04:02:22;96316.24;;;5.40;87.20
72118;BME280;59992;47.490;8.736;2022-11-20T04:05:10;96315.88;;;5.40;87.02
72118;BME280;59992;47.490;8.736;2022-11-20T04:07:59;96313.77;;;5.42;86.08
72118;BME280;59992;47.490;8.736;2022-11-20T04:10:47;96311.56;;;5.45;85.50
72118;BME280;59992;47.490;8.736;2022-11-20T04:13:35;96312.02;;;5.45;86.31
72118;BME280;59992;47.490;8.736;2022-11-20T04:16:24;96308.17;;;5.47;86.09
72118;BME280;59992;47.490;8.736;2022-11-20T04:19:15;96312.85;;;5.48;86.18
72118;BME280;59992;47.490;8.736;2022-11-20T04:22:03;96308.16;;;5.47;86.06
72118;BME280;59992;47.490;8.736;2022-11-20T04:24:52;96307.85;;;5.38;84.94
72118;BME280;59992;47.490;8.736;2022-11-20T04:27:40;96306.38;;;5.40;85.25
72118;BME280;59992;47.490;8.736;2022-11-20T04:30:28;96311.10;;;5.39;84.76
72118;BME280;59992;47.490;8.736;2022-11-20T04:33:17;96308.44;;;5.35;84.54
72118;BME280;59992;47.490;8.736;2022-11-20T04:36:07;96310.83;;;5.32;85.61
72118;BME280;59992;47.490;8.736;2022-11-20T04:38:58;96313.28;;;5.29;86.04
72118;BME280;59992;47.490;8.736;2022-11-20T04:41:46;96310.14;;;5.24;86.42
72118;BME280;59992;47.490;8.736;2022-11-20T04:44:34;96309.73;;;5.20;86.76
72118;BME280;59992;47.490;8.736;2022-11-20T04:47:24;96310.36;;;5.17;86.28
72118;BME280;59992;47.490;8.736;2022-11-20T04:50:13;96303.73;;;5.16;87.83
72118;BME280;59992;47.490;8.736;2022-11-20T04:53:01;96297.85;;;5.15;86.65
72118;BME280;59992;47.490;8.736;2022-11-20T04:55:49;96298.27;;;5.11;86.77
72118;BME280;59992;47.490;8.736;2022-11-20T04:58:38;96295.86;;;5.06;86.48
72118;BME280;59992;47.490;8.736;2022-11-20T05:01:26;96299.25;;;4.96;86.47
72118;BME280;59992;47.490;8.736;2022-11-20T05:04:14;96297.56;;;4.83;86.57
72118;BME280;59992;47.490;8.736;2022-11-20T05:07:03;96301.45;;;4.68;86.85
72118;BME280;59992;47.490;8.736;2022-11-20T05:09:51;96299.83;;;4.49;87.49
72118;BME280;59992;47.490;8.736;2022-11-20T05:12:39;96301.27;;;4.33;88.85
72118;BME280;59992;47.490;8.736;2022-11-20T05:15:27;96303.30;;;4.29;89.03
72118;BME280;59992;47.490;8.736;2022-11-20T05:18:15;96301.80;;;4.23;89.10
72118;BME280;59992;47.490;8.736;2022-11-20T05:21:04;96298.44;;;4.12;89.46
72118;BME280;59992;47.490;8.736;2022-11-20T05:23:53;96299.77;;;4.07;89.26
72118;BME280;59992;47.490;8.736;2022-11-20T05:26:41;96301.39;;;3.99;89.61
72118;BME280;59992;47.490;8.736;2022-11-20T05:29:29;96305.05;;;3.92;89.61
72118;BME280;59992;47.490;8.736;2022-11-20T05:32:17;96311.95;;;3.86;89.83
72118;BME280;59992;47.490;8.736;2022-11-20T05:35:06;96316.82;;;3.80;90.20
72118;BME280;59992;47.490;8.736;2022-11-20T05:37:55;96317.44;;;3.76;92.09
72118;BME280;59992;47.490;8.736;2022-11-20T05:40:43;96317.92;;;3.77;91.87
72118;BME280;59992;47.490;8.736;2022-11-20T05:43:33;96315.30;;;3.77;91.72
72118;BME280;59992;47.490;8.736;2022-11-20T05:46:21;96314.34;;;3.77;92.31
72118;BME280;59992;47.490;8.736;2022-11-20T05:49:10;96315.59;;;3.80;92.80
72118;BME280;59992;47.490;8.736;2022-11-20T05:51:58;96314.35;;;3.84;92.99
72118;BME280;59992;47.490;8.736;2022-11-20T05:54:46;96317.11;;;3.88;92.44
72118;BME280;59992;47.490;8.736;2022-11-20T05:57:34;96321.58;;;3.93;93.36
72118;BME280;59992;47.490;8.736;2022-11-20T06:00:22;96323.27;;;4.01;93.25
72118;BME280;59992;47.490;8.736;2022-11-20T06:03:10;96323.95;;;4.08;92.67
72118;BME280;59992;47.490;8.736;2022-11-20T06:05:59;96325.32;;;4.13;92.49
72118;BME280;59992;47.490;8.736;2022-11-20T06:08:48;96325.27;;;4.16;92.83
72118;BME280;59992;47.490;8.736;2022-11-20T06:11:36;96332.02;;;4.23;93.51
72118;BME280;59992;47.490;8.736;2022-11-20T06:14:25;96331.29;;;4.30;92.23
72118;BME280;59992;47.490;8.736;2022-11-20T06:17:13;96330.64;;;4.38;93.75
72118;BME280;59992;47.490;8.736;2022-11-20T06:20:02;96333.76;;;4.46;92.36
72118;BME280;59992;47.490;8.736;2022-11-20T06:22:50;96337.95;;;4.53;92.40
72118;BME280;59992;47.490;8.736;2022-11-20T06:25:39;96337.70;;;4.59;92.83
72118;BME280;59992;47.490;8.736;2022-11-20T06:28:27;96339.30;;;4.67;92.98
72118;BME280;59992;47.490;8.736;2022-11-20T06:31:17;96339.67;;;4.72;91.13
72118;BME280;59992;47.490;8.736;2022-11-20T06:34:06;96337.23;;;4.75;91.35
72118;BME280;59992;47.490;8.736;2022-11-20T06:36:54;96332.45;;;4.74;90.64
72118;BME280;59992;47.490;8.736;2022-11-20T06:39:42;96340.55;;;4.83;90.37
72118;BME280;59992;47.490;8.736;2022-11-20T06:42:31;96342.40;;;4.84;90.02
72118;BME280;59992;47.490;8.736;2022-11-20T06:45:20;96344.63;;;4.88;89.96
72118;BME280;59992;47.490;8.736;2022-11-20T06:48:09;96344.56;;;4.89;88.82
72118;BME280;59992;47.490;8.736;2022-11-20T06:50:57;96340.77;;;4.93;89.07
72118;BME280;59992;47.490;8.736;2022-11-20T06:53:45;96348.67;;;4.95;89.02
72118;BME280;59992;47.490;8.736;2022-11-20T06:56:33;96351.27;;;5.02;88.76
72118;BME280;59992;47.490;8.736;2022-11-20T06:59:21;96350.16;;;5.07;87.50
72118;BME280;59992;47.490;8.736;2022-11-20T07:02:11;96352.27;;;5.07;86.42
72118;BME280;59992;47.490;8.736;2022-11-20T07:04:59;96354.06;;;5.12;87.70
72118;BME280;59992;47.490;8.736;2022-11-20T07:07:48;96353.21;;;5.14;88.04
72118;BME280;59992;47.490;8.736;2022-11-20T07:10:36;96352.78;;;5.17;87.40
72118;BME280;59992;47.490;8.736;2022-11-20T07:13:24;96357.77;;;5.18;88.47
72118;BME280;59992;47.490;8.736;2022-11-20T07:16:13;96359.94;;;5.22;88.03
72118;BME280;59992;47.490;8.736;2022-11-20T07:19:01;96362.38;;;5.29;88.02
72118;BME280;59992;47.490;8.736;2022-11-20T07:21:49;96366.93;;;5.35;87.40
72118;BME280;59992;47.490;8.736;2022-11-20T07:24:40;96375.17;;;5.39;87.26
72118;BME280;59992;47.490;8.736;2022-11-20T07:27:28;96377.79;;;5.39;86.40
72118;BME280;59992;47.490;8.736;2022-11-20T07:30:17;96381.44;;;5.43;86.36
72118;BME280;59992;47.490;8.736;2022-11-20T07:33:05;96378.33;;;5.47;85.94
72118;BME280;59992;47.490;8.736;2022-11-20T07:35:53;96382.85;;;5.51;86.23
72118;BME280;59992;47.490;8.736;2022-11-20T07:38:41;96383.64;;;5.58;86.57
72118;BME280;59992;47.490;8.736;2022-11-20T07:41:29;96385.02;;;5.66;86.68
72118;BME280;59992;47.490;8.736;2022-11-20T07:44:18;96383.64;;;5.73;85.86
72118;BME280;59992;47.490;8.736;2022-11-20T07:47:06;96371.61;;;5.70;83.82
72118;BME280;59992;47.490;8.736;2022-11-20T07:49:55;96384.16;;;5.87;83.92
72118;BME280;59992;47.490;8.736;2022-11-20T07:52:43;96382.27;;;5.97;84.54
72118;BME280;59992;47.490;8.736;2022-11-20T07:55:31;96380.17;;;6.06;84.03
72118;BME280;59992;47.490;8.736;2022-11-20T07:58:20;96379.70;;;6.14;83.21
72118;BME280;59992;47.490;8.736;2022-11-20T08:01:08;96378.08;;;6.23;83.75
72118;BME280;59992;47.490;8.736;2022-11-20T08:03:57;96377.54;;;6.34;84.19
72118;BME280;59992;47.490;8.736;2022-11-20T08:06:45;96381.73;;;6.46;82.87
72118;BME280;59992;47.490;8.736;2022-11-20T08:09:33;96379.13;;;6.49;80.14
72118;BME280;59992;47.490;8.736;2022-11-20T08:12:21;96384.01;;;6.61;80.51
72118;BME280;59992;47.490;8.736;2022-11-20T08:15:28;96385.73;;;6.72;80.43
72118;BME280;59992;47.490;8.736;2022-11-20T08:18:16;96384.68;;;6.78;79.50
72118;BME280;59992;47.490;8.736;2022-11-20T08:21:05;96386.48;;;6.78;79.35
72118;BME280;59992;47.490;8.736;2022-11-20T08:23:53;96380.08;;;6.87;81.00
72118;BME280;59992;47.490;8.736;2022-11-20T08:26:41;96381.86;;;6.92;78.41
72118;BME280;59992;47.490;8.736;2022-11-20T08:29:29;96390.24;;;7.06;78.08
72118;BME280;59992;47.490;8.736;2022-11-20T08:32:18;96390.63;;;7.20;80.34
72118;BME280;59992;47.490;8.736;2022-11-20T08:35:07;96392.89;;;7.22;76.72
72118;BME280;59992;47.490;8.736;2022-11-20T08:37:56;96390.30;;;7.28;77.80
72118;BME280;59992;47.490;8.736;2022-11-20T08:40:44;96388.20;;;7.25;76.37
72118;BME280;59992;47.490;8.736;2022-11-20T08:43:55;96391.56;;;7.14;75.38
72118;BME280;59992;47.490;8.736;2022-11-20T08:46:43;96386.10;;;7.00;75.22
72118;BME280;59992;47.490;8.736;2022-11-20T08:49:33;96395.09;;;7.04;76.95
72118;BME280;59992;47.490;8.736;2022-11-20T08:52:22;96394.27;;;6.95;75.43
72118;BME280;59992;47.490;8.736;2022-11-20T08:55:10;96391.56;;;6.86;75.69
72118;BME280;59992;47.490;8.736;2022-11-20T08:57:58;96393.83;;;6.95;76.04
72118;BME280;59992;47.490;8.736;2022-11-20T09:00:51;96394.10;;;7.07;75.72
72118;BME280;59992;47.490;8.736;2022-11-20T09:03:39;96396.16;;;7.24;74.97
72118;BME280;59992;47.490;8.736;2022-11-20T09:06:29;96395.52;;;7.32;74.41
72118;BME280;59992;47.490;8.736;2022-11-20T09:09:17;96396.37;;;7.30;74.08
72118;BME280;59992;47.490;8.736;2022-11-20T09:12:05;96396.42;;;7.36;73.85
72118;BME280;59992;47.490;8.736;2022-11-20T09:14:53;96399.33;;;7.37;73.32
72118;BME280;59992;47.490;8.736;2022-11-20T09:17:41;96396.95;;;7.36;73.00
72118;BME280;59992;47.490;8.736;2022-11-20T09:20:30;96396.59;;;7.50;73.78
72118;BME280;59992;47.490;8.736;2022-11-20T09:23:18;96393.77;;;7.69;74.18
72118;BME280;59992;47.490;8.736;2022-11-20T09:26:09;96391.56;;;7.83;73.93
72118;BME280;59992;47.490;8.736;2022-11-20T09:28:57;96391.14;;;7.88;71.89
72118;BME280;59992;47.490;8.736;2022-11-20T09:31:45;96386.37;;;8.01;74.22
72118;BME280;59992;47.490;8.736;2022-11-20T09:34:34;96389.48;;;8.06;72.30
72118;BME280;59992;47.490;8.736;2022-11-20T09:37:23;96384.11;;;8.10;71.95
72118;BME280;59992;47.490;8.736;2022-11-20T09:40:19;96383.63;;;8.15;72.73
72118;BME280;59992;47.490;8.736;2022-11-20T09:43:13;96385.30;;;8.09;70.95
72118;BME280;59992;47.490;8.736;2022-11-20T09:46:11;96380.31;;;8.15;71.72
72118;BME280;59992;47.490;8.736;2022-11-20T09:49:19;96385.23;;;8.09;70.23
72118;BME280;59992;47.490;8.736;2022-11-20T09:52:17;96387.40;;;8.08;71.27
72118;BME280;59992;47.490;8.736;2022-11-20T09:55:10;96394.83;;;8.10;72.52
72118;BME280;59992;47.490;8.736;2022-11-20T09:58:00;96397.92;;;8.02;71.21
72118;BME280;59992;47.490;8.736;2022-11-20T10:00:48;96408.28;;;8.00;70.37
72118;BME280;59992;47.490;8.736;2022-11-20T10:03:43;96404.89;;;8.00;71.15
72118;BME280;59992;47.490;8.736;2022-11-20T10:06:39;96408.50;;;8.03;71.32
72118;BME280;59992;47.490;8.736;2022-11-20T10:09:32;96409.00;;;7.98;70.03
72118;BME280;59992;47.490;8.736;2022-11-20T10:12:29;96401.45;;;8.20;69.98
72118;BME280;59992;47.490;8.736;2022-11-20T10:15:29;96399.58;;;8.48;71.27
72118;BME280;59992;47.490;8.736;2022-11-20T10:18:33;96397.40;;;8.69;67.75
72118;BME280;59992;47.490;8.736;2022-11-20T10:21:33;96400.20;;;8.97;69.02
72118;BME280;59992;47.490;8.736;2022-11-20T10:24:41;96394.14;;;9.15;67.55
72118;BME280;59992;47.490;8.736;2022-11-20T10:27:47;96399.13;;;9.20;66.81
72118;BME280;59992;47.490;8.736;2022-11-20T10:30:42;96398.16;;;9.30;65.91
72118;BME280;59992;47.490;8.736;2022-11-20T10:33:34;96394.92;;;9.36;65.81
72118;BME280;59992;47.490;8.736;2022-11-20T10:36:27;96397.04;;;9.31;64.99
72118;BME280;59992;47.490;8.736;2022-11-20T10:39:20;96398.91;;;9.39;66.71
72118;BME280;59992;47.490;8.736;2022-11-20T10:42:13;96394.82;;;9.50;67.12
72118;BME280;59992;47.490;8.736;2022-11-20T10:45:15;96389.02;;;9.51;65.17
72118;BME280;59992;47.490;8.736;2022-11-20T10:48:14;96389.29;;;9.43;65.15
72118;BME280;59992;47.490;8.736;2022-11-20T10:51:25;96385.27;;;9.22;64.01
72118;BME280;59992;47.490;8.736;2022-11-20T10:54:22;96383.91;;;9.28;65.02
72118;BME280;59992;47.490;8.736;2022-11-20T10:57:20;96385.30;;;9.14;65.43
72118;BME280;59992;47.490;8.736;2022-11-20T11:00:14;96381.71;;;9.17;65.25
72118;BME280;59992;47.490;8.736;2022-11-20T11:03:19;96378.85;;;9.22;64.63
72118;BME280;59992;47.490;8.736;2022-11-20T11:06:12;96378.84;;;9.26;65.55
72118;BME280;59992;47.490;8.736;2022-11-20T11:09:09;96374.42;;;9.40;66.32
72118;BME280;59992;47.490;8.736;2022-11-20T11:12:00;96363.24;;;9.46;64.99
72118;BME280;59992;47.490;8.736;2022-11-20T11:14:49;96359.86;;;9.47;63.89
72118;BME280;59992;47.490;8.736;2022-11-20T11:17:46;96354.57;;;9.53;64.29
72118;BME280;59992;47.490;8.736;2022-11-20T11:20:35;96354.02;;;9.57;65.12
72118;BME280;59992;47.490;8.736;2022-11-20T11:23:30;96350.48;;;9.51;64.00
72118;BME280;59992;47.490;8.736;2022-11-20T11:26:21;96346.59;;;9.39;63.87
72118;BME280;59992;47.490;8.736;2022-11-20T11:29:18;96340.05;;;9.41;64.44
72118;BME280;59992;47.490;8.736;2022-11-20T11:32:08;96336.48;;;9.45;64.51
72118;BME280;59992;47.490;8.736;2022-11-20T11:35:03;96330.95;;;9.39;64.25
72118;BME280;59992;47.490;8.736;2022-11-20T11:37:54;96325.16;;;9.36;64.21
72118;BME280;59992;47.490;8.736;2022-11-20T11:40:43;96324.29;;;9.49;65.28
72118;BME280;59992;47.490;8.736;2022-11-20T11:43:33;96321.24;;;9.53;65.16
72118;BME280;59992;47.490;8.736;2022-11-20T11:46:44;96319.79;;;9.58;64.00
72118;BME280;59992;47.490;8.736;2022-11-20T11:49:37;96315.86;;;9.59;64.34
72118;BME280;59992;47.490;8.736;2022-11-20T11:52:26;96310.46;;;9.56;65.13
72118;BME280;59992;47.490;8.736;2022-11-20T11:55:31;96307.79;;;9.48;63.71
72118;BME280;59992;47.490;8.736;2022-11-20T11:58:38;96303.47;;;9.36;63.87
72118;BME280;59992;47.490;8.736;2022-11-20T12:01:33;96301.40;;;9.17;64.12
72118;BME280;59992;47.490;8.736;2022-11-20T12:04:40;96299.13;;;9.11;65.44
72118;BME280;59992;47.490;8.736;2022-11-20T12:07:39;96297.37;;;9.15;65.90
72118;BME280;59992;47.490;8.736;2022-11-20T12:10:39;96294.36;;;9.10;65.49
72118;BME280;59992;47.490;8.736;2022-11-20T12:13:39;96286.52;;;9.28;66.64
72118;BME280;59992;47.490;8.736;2022-11-20T12:16:31;96276.94;;;9.42;65.99
72118;BME280;59992;47.490;8.736;2022-11-20T12:19:22;96272.47;;;9.47;64.15
72118;BME280;59992;47.490;8.736;2022-11-20T12:22:19;96264.09;;;9.54;64.75
72118;BME280;59992;47.490;8.736;2022-11-20T12:25:15;96265.30;;;9.66;63.47
72118;BME280;59992;47.490;8.736;2022-11-20T12:28:31;96260.75;;;9.78;62.31
72118;BME280;59992;47.490;8.736;2022-11-20T12:31:35;96260.66;;;9.84;63.00
72118;BME280;59992;47.490;8.736;2022-11-20T12:34:50;96260.10;;;9.74;62.83
72118;BME280;59992;47.490;8.736;2022-11-20T12:37:48;96259.45;;;9.70;62.94
72118;BME280;59992;47.490;8.736;2022-11-20T12:40:45;96254.30;;;9.63;62.77
72118;BME280;59992;47.490;8.736;2022-11-20T12:43:41;96252.89;;;9.53;62.96
72118;BME280;59992;47.490;8.736;2022-11-20T12:46:55;96245.77;;;9.58;63.97
72118;BME280;59992;47.490;8.736;2022-11-20T12:49:56;96238.55;;;9.55;62.92
72118;BME280;59992;47.490;8.736;2022-11-20T12:52:51;96229.52;;;9.64;63.10
72118;BME280;59992;47.490;8.736;2022-11-20T12:55:48;96229.41;;;9.76;63.76
72118;BME280;59992;47.490;8.736;2022-11-20T12:58:43;96236.57;;;9.95;63.63
72118;BME280;59992;47.490;8.736;2022-11-20T13:01:38;96233.27;;;10.05;62.87
72118;BME280;59992;47.490;8.736;2022-11-20T13:04:49;96238.52;;;10.12;63.86
72118;BME280;59992;47.490;8.736;2022-11-20T13:07:44;96233.63;;;10.09;61.90
72118;BME280;59992;47.490;8.736;2022-11-20T13:10:35;96234.27;;;9.92;58.51
72118;BME280;59992;47.490;8.736;2022-11-20T13:13:33;96225.20;;;9.71;57.96
72118;BME280;59992;47.490;8.736;2022-11-20T13:16:29;96226.08;;;9.61;59.51
72118;BME280;59992;47.490;8.736;2022-11-20T13:19:20;96227.00;;;9.50;60.07
72118;BME280;59992;47.490;8.736;2022-11-20T13:22:09;96219.85;;;9.46;59.90
72118;BME280;59992;47.490;8.736;2022-11-20T13:25:00;96212.27;;;9.43;60.41
72118;BME280;59992;47.490;8.736;2022-11-20T13:27:49;96208.48;;;9.43;60.44
72118;BME280;59992;47.490;8.736;2022-11-20T13:30:49;96207.70;;;9.42;61.15
72118;BME280;59992;47.490;8.736;2022-11-20T13:33:38;96206.62;;;9.32;61.56
72118;BME280;59992;47.490;8.736;2022-11-20T13:36:31;96208.37;;;9.15;61.51
72118;BME280;59992;47.490;8.736;2022-11-20T13:39:27;96204.23;;;9.04;61.01
72118;BME280;59992;47.490;8.736;2022-11-20T13:42:25;96198.06;;;8.95;61.95
72118;BME280;59992;47.490;8.736;2022-11-20T13:45:23;96193.27;;;8.86;62.65
72118;BME280;59992;47.490;8.736;2022-11-20T13:48:22;96194.02;;;8.82;63.30
72118;BME280;59992;47.490;8.736;2022-11-20T13:51:20;96195.50;;;8.68;62.67
72118;BME280;59992;47.490;8.736;2022-11-20T13:54:25;96194.58;;;8.71;63.22
72118;BME280;59992;47.490;8.736;2022-11-20T14:00:44;96192.26;;;8.68;62.45
72118;BME280;59992;47.490;8.736;2022-11-20T14:03:36;96193.70;;;8.63;62.76
72118;BME280;59992;47.490;8.736;2022-11-20T14:06:28;96186.90;;;8.63;62.99
72118;BME280;59992;47.490;8.736;2022-11-20T14:09:27;96188.44;;;8.59;64.96
72118;BME280;59992;47.490;8.736;2022-11-20T14:12:18;96177.73;;;8.51;64.57
72118;BME280;59992;47.490;8.736;2022-11-20T14:15:28;96174.90;;;8.53;65.49
72118;BME280;59992;47.490;8.736;2022-11-20T14:18:20;96166.81;;;8.57;65.02
72118;BME280;59992;47.490;8.736;2022-11-20T14:21:09;96161.98;;;8.57;65.25
72118;BME280;59992;47.490;8.736;2022-11-20T14:24:10;96160.38;;;8.50;65.58
72118;BME280;59992;47.490;8.736;2022-11-20T14:26:58;96161.33;;;8.38;65.12
72118;BME280;59992;47.490;8.736;2022-11-20T14:29:48;96160.99;;;8.30;65.53
72118;BME280;59992;47.490;8.736;2022-11-20T14:32:37;96162.87;;;8.22;65.79
72118;BME280;59992;47.490;8.736;2022-11-20T14:35:27;96162.81;;;8.05;66.43
72118;BME280;59992;47.490;8.736;2022-11-20T14:38:18;96161.98;;;7.95;66.70
72118;BME280;59992;47.490;8.736;2022-11-20T14:41:08;96163.86;;;7.85;67.18
72118;BME280;59992;47.490;8.736;2022-11-20T14:43:58;96160.41;;;7.77;67.28
72118;BME280;59992;47.490;8.736;2022-11-20T14:46:47;96156.29;;;7.70;67.79
72118;BME280;59992;47.490;8.736;2022-11-20T14:49:36;96154.80;;;7.63;68.16
72118;BME280;59992;47.490;8.736;2022-11-20T14:52:27;96149.02;;;7.56;69.25
72118;BME280;59992;47.490;8.736;2022-11-20T14:55:26;96148.21;;;7.45;70.08
72118;BME280;59992;47.490;8.736;2022-11-20T14:58:23;96151.48;;;7.29;71.01
72118;BME280;59992;47.490;8.736;2022-11-20T15:01:13;96151.38;;;7.20;71.97
72118;BME280;59992;47.490;8.736;2022-11-20T15:04:10;96146.65;;;7.05;72.28
72118;BME280;59992;47.490;8.736;2022-11-20T15:07:00;96139.70;;;6.97;72.71
72118;BME280;59992;47.490;8.736;2022-11-20T15:09:48;96134.00;;;6.87;74.02
72118;BME280;59992;47.490;8.736;2022-11-20T15:12:52;96136.59;;;6.73;76.18
72118;BME280;59992;47.490;8.736;2022-11-20T15:15:48;96135.24;;;6.67;75.50
72118;BME280;59992;47.490;8.736;2022-11-20T15:18:42;96132.25;;;6.61;75.83
72118;BME280;59992;47.490;8.736;2022-11-20T15:21:30;96126.71;;;6.55;75.09
72118;BME280;59992;47.490;8.736;2022-11-20T15:24:18;96120.96;;;6.46;75.46